createdAt,value
2023-03-17T00:53:41.013Z,79.20
2023-03-17T00:58:45.528Z,79.10
2023-03-17T01:03:48.037Z,79.30
2023-03-17T01:08:52.232Z,79.10
2023-03-17T01:13:54.785Z,79.10
2023-03-17T01:19:00.132Z,79.20
2023-03-17T01:24:06.188Z,79.10
2023-03-17T01:29:08.815Z,79.30
2023-03-17T01:34:14.153Z,80.30
2023-03-17T01:39:19.557Z,79.80
2023-03-17T01:44:22.573Z,79.40
2023-03-17T01:49:32.439Z,79.10
2023-03-17T01:54:44.664Z,78.80
2023-03-17T01:59:52.001Z,79.20
2023-03-17T02:04:55.386Z,79.30
2023-03-17T02:10:00.340Z,79.50
2023-03-17T02:15:03.219Z,79.80
2023-03-17T02:21:19.869Z,80.10
2023-03-17T02:26:26.769Z,80.00
2023-03-17T02:31:29.754Z,79.70
2023-03-17T02:36:32.298Z,79.60
2023-03-17T02:41:36.790Z,79.50
2023-03-17T02:46:39.237Z,79.60
2023-03-17T02:51:41.737Z,79.80
2023-03-17T02:56:48.257Z,80.10
2023-03-17T03:01:50.961Z,80.10
2023-03-17T03:06:53.939Z,80.30
2023-03-17T03:11:57.948Z,80.70
2023-03-17T03:17:00.783Z,80.40
2023-03-17T03:22:06.409Z,80.10
2023-03-17T03:27:10.944Z,80.30
2023-03-17T03:32:13.799Z,80.30
2023-03-17T03:37:16.360Z,80.50
2023-03-17T03:42:22.991Z,80.40
2023-03-17T03:47:25.588Z,80.30
2023-03-17T03:52:28.113Z,80.30
2023-03-17T03:57:32.119Z,80.50
2023-03-17T04:02:34.978Z,80.60
2023-03-17T04:07:37.471Z,80.60
2023-03-17T04:12:44.994Z,80.60
2023-03-17T04:17:47.900Z,81.20
2023-03-17T04:22:50.385Z,81.60
2023-03-17T04:27:54.435Z,81.70
2023-03-17T04:32:56.923Z,81.40
2023-03-17T04:37:59.345Z,81.40
2023-03-17T04:43:03.689Z,81.20
2023-03-17T04:48:06.520Z,81.10
2023-03-17T04:53:09.221Z,81.20
2023-03-17T04:58:21.106Z,81.60
2023-03-17T05:03:31.394Z,81.40
2023-03-17T05:08:33.957Z,81.30
2023-03-17T05:13:37.956Z,81.40
2023-03-17T05:18:43.211Z,81.60
2023-03-17T05:23:45.673Z,81.60
2023-03-17T05:28:52.750Z,81.90
2023-03-17T05:33:55.283Z,82.10
2023-03-17T05:38:58.026Z,82.20
2023-03-17T05:44:02.048Z,82.50
2023-03-17T05:49:04.690Z,82.60
2023-03-17T05:54:07.508Z,82.20
2023-03-17T05:59:14.724Z,81.70
2023-03-17T06:05:06.750Z,81.70
2023-03-17T06:11:07.896Z,81.80
2023-03-17T06:16:42.528Z,81.80
2023-03-17T06:22:00.645Z,81.30
2023-03-17T06:27:06.366Z,81.40
2023-03-17T06:32:20.343Z,81.10
2023-03-17T06:37:24.204Z,81.20
2023-03-17T06:42:29.327Z,81.00
2023-03-17T06:47:34.179Z,80.80
2023-03-17T06:52:37.602Z,80.50
2023-03-17T06:57:42.545Z,80.70
2023-03-17T07:02:47.034Z,80.60
2023-03-17T07:07:49.728Z,80.20
2023-03-17T07:12:52.564Z,80.50
2023-03-17T07:17:56.676Z,80.00
2023-03-17T07:23:01.270Z,80.00
2023-03-17T07:28:06.967Z,80.00
2023-03-17T07:33:11.013Z,79.50
2023-03-17T07:38:13.778Z,78.80
2023-03-17T07:43:17.613Z,77.80
2023-03-17T07:48:24.169Z,77.20
2023-03-17T07:53:28.076Z,76.70
2023-03-17T07:58:30.884Z,75.60
2023-03-17T08:03:39.297Z,75.60
2023-03-17T08:08:44.338Z,74.10
2023-03-17T08:13:47.885Z,73.60
2023-03-17T08:18:54.959Z,72.70
2023-03-17T08:24:00.709Z,71.90
2023-03-17T08:29:05.060Z,72.10
2023-03-17T08:34:12.892Z,70.40
2023-03-17T08:39:16.562Z,69.70
2023-03-17T08:44:21.133Z,68.70
2023-03-17T08:50:23.298Z,68.00
2023-03-17T08:55:30.854Z,66.10
2023-03-17T09:00:37.864Z,66.40
2023-03-17T09:05:43.328Z,66.00
2023-03-17T09:10:47.659Z,66.60
2023-03-17T09:15:52.209Z,65.60
2023-03-17T09:20:57.285Z,65.30
2023-03-17T09:26:03.433Z,62.90
2023-03-17T09:31:07.966Z,62.30
2023-03-17T09:36:12.570Z,63.80
2023-03-17T09:41:51.167Z,63.50
2023-03-17T09:47:18.942Z,62.10
2023-03-17T09:52:29.839Z,60.40
2023-03-17T09:57:37.625Z,60.00
2023-03-17T10:02:41.227Z,58.90
2023-03-17T10:08:03.531Z,59.00
2023-03-17T10:13:36.636Z,58.50
2023-03-17T10:18:47.204Z,58.00
2023-03-17T10:23:54.131Z,58.40
2023-03-17T10:28:59.370Z,58.90
2023-03-17T10:34:16.949Z,59.00
2023-03-17T10:39:25.686Z,58.30
2023-03-17T10:44:45.094Z,58.20
2023-03-17T10:50:39.692Z,57.20
2023-03-17T11:03:19.306Z,55.40
2023-03-17T11:08:38.440Z,55.20
2023-03-17T11:13:46.211Z,55.60
2023-03-17T11:19:01.527Z,55.10
2023-03-17T11:24:12.291Z,53.80
2023-03-17T11:29:28.974Z,54.60
2023-03-17T11:34:58.107Z,54.50
2023-03-17T11:40:18.617Z,54.70
2023-03-17T11:45:29.099Z,54.50
2023-03-17T11:50:40.974Z,54.10
2023-03-17T11:55:49.011Z,53.70
2023-03-17T12:00:58.789Z,54.20
2023-03-17T12:06:09.872Z,51.50
2023-03-17T12:11:18.209Z,52.00
2023-03-17T12:16:31.797Z,52.10
2023-03-17T12:21:44.946Z,52.80
2023-03-17T12:26:59.055Z,51.30
2023-03-17T12:32:08.048Z,50.80
2023-03-17T12:37:16.033Z,51.60
2023-03-17T12:42:46.450Z,49.60
2023-03-17T12:48:24.964Z,49.60
2023-03-17T12:53:32.446Z,45.40
2023-03-17T12:58:40.262Z,46.00
2023-03-17T13:04:02.139Z,43.70
2023-03-17T13:09:47.191Z,43.60
2023-03-17T13:15:00.641Z,43.10
2023-03-17T13:20:18.534Z,45.20
2023-03-17T13:25:33.912Z,45.60
2023-03-17T13:31:11.984Z,45.00
2023-03-17T13:36:46.449Z,43.10
2023-03-17T13:42:18.723Z,41.10
2023-03-17T13:47:35.098Z,41.20
2023-03-17T13:52:48.398Z,41.40
2023-03-17T13:58:22.194Z,40.50
2023-03-17T14:03:36.227Z,42.20
2023-03-17T14:08:49.271Z,42.90
2023-03-17T14:14:29.646Z,40.20
2023-03-17T14:19:34.029Z,40.80
2023-03-17T14:24:36.851Z,40.00
2023-03-17T14:29:41.510Z,39.70
2023-03-17T14:34:53.283Z,39.90
2023-03-17T14:39:58.217Z,39.30
2023-03-17T14:45:05.795Z,39.60
2023-03-17T14:50:17.998Z,40.60
2023-03-17T14:55:21.219Z,39.80
2023-03-17T15:00:35.690Z,41.30
2023-03-17T15:05:41.536Z,42.20
2023-03-17T15:10:44.298Z,40.10
2023-03-17T15:15:48.355Z,39.30
2023-03-17T15:20:50.912Z,40.40
2023-03-17T15:25:57.331Z,40.10
2023-03-17T15:31:13.526Z,40.60
2023-03-17T15:36:33.528Z,40.70
2023-03-17T15:41:36.115Z,41.20
2023-03-17T15:46:40.158Z,41.10
2023-03-17T15:51:42.644Z,41.10
2023-03-17T15:56:45.263Z,42.10
2023-03-17T16:01:49.286Z,41.80
2023-03-17T16:06:52.005Z,42.10
2023-03-17T16:11:54.764Z,42.80
2023-03-17T16:16:58.879Z,43.50
2023-03-17T16:22:01.520Z,43.70
2023-03-17T16:27:14.414Z,44.00
2023-03-17T16:32:18.788Z,44.10
2023-03-17T16:37:21.259Z,44.10
2023-03-17T16:42:24.870Z,44.80
2023-03-17T16:47:28.763Z,45.10
2023-03-17T16:52:31.313Z,45.50
2023-03-17T16:57:34.060Z,45.70
2023-03-17T17:02:38.068Z,46.30
2023-03-17T17:07:40.719Z,46.60
2023-03-17T17:12:43.236Z,46.90
2023-03-17T17:17:50.349Z,47.50
2023-03-17T17:22:52.747Z,46.90
2023-03-17T17:27:56.568Z,47.30
2023-03-17T17:33:01.726Z,47.30
2023-03-17T17:38:05.019Z,47.30
2023-03-17T17:43:08.993Z,47.10
2023-03-17T17:48:13.277Z,47.50
2023-03-17T17:53:15.749Z,47.30
2023-03-17T17:58:21.609Z,47.80
2023-03-17T18:03:26.441Z,47.70
2023-03-17T18:08:29.015Z,48.30
2023-03-17T18:13:32.330Z,48.90
2023-03-17T18:18:36.406Z,48.70
2023-03-17T18:23:39.519Z,49.10
2023-03-17T18:28:42.392Z,50.20
2023-03-17T18:33:49.132Z,50.60
2023-03-17T18:38:51.751Z,51.50
2023-03-17T18:43:54.144Z,52.60
2023-03-17T18:48:57.991Z,52.90
2023-03-17T18:54:00.787Z,53.60
2023-03-17T18:59:03.320Z,54.00
2023-03-17T19:04:07.740Z,54.30
2023-03-17T19:09:10.883Z,54.30
2023-03-17T19:14:13.267Z,54.30
2023-03-17T19:19:17.046Z,54.40
2023-03-17T19:24:19.522Z,54.60
2023-03-17T19:29:21.926Z,54.70
2023-03-17T19:34:25.763Z,54.40
2023-03-17T19:39:28.232Z,54.60
2023-03-17T19:44:30.586Z,54.60
2023-03-17T19:49:34.452Z,54.30
2023-03-17T19:54:37.546Z,54.20
2023-03-17T19:59:40.465Z,54.30
2023-03-17T20:04:44.729Z,54.20
2023-03-17T20:09:47.218Z,54.00
2023-03-17T20:14:49.757Z,53.80
2023-03-17T20:19:53.979Z,53.50
2023-03-17T20:24:56.410Z,53.60
2023-03-17T20:29:59.312Z,52.80
2023-03-17T20:35:06.133Z,53.30
2023-03-17T20:40:12.062Z,53.10
2023-03-17T20:45:14.770Z,53.00
2023-03-17T20:50:22.416Z,53.10
2023-03-17T20:55:24.790Z,53.20
2023-03-17T21:00:27.989Z,53.10
2023-03-17T21:05:32.633Z,53.30
2023-03-17T21:10:35.368Z,53.10
2023-03-17T21:15:37.964Z,53.20
2023-03-17T21:20:41.796Z,53.10
2023-03-17T21:25:44.188Z,53.00
2023-03-17T21:30:46.548Z,52.70
2023-03-17T21:35:50.645Z,52.80
2023-03-17T21:40:53.709Z,52.60
2023-03-17T21:45:56.963Z,52.50
2023-03-17T21:51:01.013Z,52.30
2023-03-17T21:56:03.623Z,52.30
2023-03-17T22:01:06.595Z,52.40
2023-03-17T22:06:11.757Z,52.40
2023-03-17T22:11:17.589Z,52.60
2023-03-17T22:16:20.173Z,52.50
2023-03-17T22:21:24.432Z,52.50
2023-03-17T22:26:26.883Z,52.60
2023-03-17T22:31:30.182Z,52.80
2023-03-17T22:36:37.298Z,52.60
2023-03-17T22:41:39.713Z,52.40
2023-03-17T22:46:42.123Z,52.20
2023-03-17T22:51:45.960Z,52.40
2023-03-17T22:56:51.140Z,52.30
2023-03-17T23:01:53.543Z,52.20
2023-03-17T23:06:57.317Z,51.80
2023-03-17T23:12:02.292Z,52.10
2023-03-17T23:17:05.787Z,51.60
2023-03-17T23:22:09.730Z,51.70
2023-03-17T23:27:15.016Z,52.00
2023-03-17T23:32:17.432Z,52.20
2023-03-17T23:37:21.200Z,51.60
2023-03-17T23:42:23.556Z,51.90
2023-03-17T23:47:26.169Z,52.30
2023-03-17T23:52:30.165Z,52.10
2023-03-17T23:57:32.852Z,52.00
